Time;durP1;ratioP1;P1;durP2;ratioP2;P2;SDS_P1;SDS_P2;PMS_P1;PMS_P2;Temp;Humidity;BMP_temperature;BMP_pressure;BME280_temperature;BME280_humidity;BME280_pressure;Samples;Min_cycle;Max_cycle;Signal;HPM_P1;HPM_P2
2021/04/10 00:01:08;;;;;;;21.70;11.80;;;;;;;4.44;54.58;100373.34;104857;1108;79027;-67
2021/04/10 00:03:14;;;;;;;22.00;10.50;;;;;;;4.42;54.68;100376.16;104846;1108;78347;-62
2021/04/10 00:05:22;;;;;;;17.00;10.10;;;;;;;4.43;54.78;100377.00;104854;1108;78255;-61
2021/04/10 00:07:27;;;;;;;18.50;10.80;;;;;;;4.39;54.71;100372.97;104853;1108;77326;-61
2021/04/10 00:09:32;;;;;;;21.50;10.70;;;;;;;4.42;54.37;100367.31;104848;1108;77245;-61
2021/04/10 00:14:22;;;;;;;22.40;11.10;;;;;;;4.43;54.72;100363.63;104843;1108;77400;-63
2021/04/10 00:16:27;;;;;;;21.80;12.30;;;;;;;4.46;55.01;100360.66;104838;1108;77276;-62
2021/04/10 00:18:32;;;;;;;20.30;10.80;;;;;;;4.42;54.76;100360.11;104826;1108;77324;-62
2021/04/10 00:20:37;;;;;;;18.90;11.10;;;;;;;4.42;55.22;100359.30;104836;1108;77885;-61
2021/04/10 00:22:43;;;;;;;20.60;10.70;;;;;;;4.40;54.85;100353.23;104840;1108;77694;-64
2021/04/10 00:24:49;;;;;;;16.90;10.40;;;;;;;4.41;55.28;100354.93;104969;1111;79139;-64
2021/04/10 00:26:54;;;;;;;18.00;10.90;;;;;;;4.38;55.31;100357.90;104879;1108;78760;-62
2021/04/10 00:28:59;;;;;;;19.30;11.10;;;;;;;4.35;54.87;100355.52;104780;1110;79490;-62
2021/04/10 00:31:07;;;;;;;17.70;10.80;;;;;;;4.35;55.35;100352.84;104880;1110;78250;-65
2021/04/10 00:33:12;;;;;;;19.60;12.10;;;;;;;4.37;55.23;100348.22;104850;1108;78765;-62
2021/04/10 00:35:19;;;;;;;19.70;11.30;;;;;;;4.35;55.21;100347.50;104826;1108;78231;-62
2021/04/10 00:37:24;;;;;;;18.90;10.60;;;;;;;4.31;55.31;100348.81;104831;1108;78793;-62
2021/04/10 00:39:29;;;;;;;21.00;11.30;;;;;;;4.29;55.28;100353.45;104828;1108;78904;-62
2021/04/10 00:41:34;;;;;;;18.70;10.70;;;;;;;4.26;55.56;100351.91;104888;1108;79089;-62
2021/04/10 00:43:40;;;;;;;19.50;10.00;;;;;;;4.24;55.64;100350.39;104817;1108;78758;-62
2021/04/10 00:45:45;;;;;;;21.70;11.10;;;;;;;4.19;55.45;100340.16;104842;1108;78509;-62
2021/04/10 00:47:53;;;;;;;18.60;11.20;;;;;;;4.15;55.66;100342.27;104839;1107;77136;-62
2021/04/10 00:49:58;;;;;;;21.70;11.50;;;;;;;4.19;55.70;100350.84;104957;1111;77933;-62
2021/04/10 00:52:04;;;;;;;21.90;11.50;;;;;;;4.16;55.62;100343.97;104869;1108;78801;-62
2021/04/10 00:54:12;;;;;;;21.30;11.40;;;;;;;4.17;56.12;100353.66;104858;1108;77913;-61
2021/04/10 00:56:25;;;;;;;18.50;11.20;;;;;;;4.17;55.80;100352.84;104842;1107;78099;-62
2021/04/10 00:58:30;;;;;;;22.40;11.40;;;;;;;4.10;55.96;100347.23;104879;1109;77011;-67
2021/04/10 01:00:35;;;;;;;17.70;11.00;;;;;;;4.06;56.06;100343.19;104793;1108;77338;-66
2021/04/10 01:02:40;;;;;;;20.40;11.60;;;;;;;4.02;55.95;100351.64;104847;1108;78950;-66
2021/04/10 01:04:48;;;;;;;21.50;11.60;;;;;;;4.01;56.20;100348.11;104867;1108;78563;-67
2021/04/10 01:06:53;;;;;;;19.50;11.40;;;;;;;4.00;56.36;100341.11;104852;1108;78827;-62
2021/04/10 01:08:58;;;;;;;22.10;12.30;;;;;;;3.98;56.48;100340.39;104797;1108;77558;-63
2021/04/10 01:11:22;;;;;;;20.70;11.40;;;;;;;3.99;56.51;100346.59;104825;1108;77540;-62
2021/04/10 01:13:40;;;;;;;18.60;11.20;;;;;;;3.97;56.46;100348.58;104812;1108;78682;-65
2021/04/10 01:15:59;;;;;;;17.80;11.30;;;;;;;3.96;56.43;100349.55;104845;1108;77289;-65
2021/04/10 01:18:12;;;;;;;21.70;11.80;;;;;;;3.92;56.69;100345.52;104830;1108;77830;-62
2021/04/10 01:20:55;;;;;;;21.40;11.00;;;;;;;3.88;56.56;100344.95;104842;1108;78643;-62
2021/04/10 01:23:25;;;;;;;21.00;11.40;;;;;;;3.82;56.77;100340.20;104851;1108;76985;-64
2021/04/10 01:25:40;;;;;;;21.70;11.30;;;;;;;3.72;56.52;100336.73;104865;1108;76898;-65
2021/04/10 01:27:51;;;;;;;22.10;12.10;;;;;;;3.67;56.94;100328.33;104846;1108;78399;-62
2021/04/10 01:30:01;;;;;;;20.30;11.40;;;;;;;3.67;56.89;100331.00;104844;1107;78984;-61
2021/04/10 01:32:07;;;;;;;19.10;11.30;;;;;;;3.64;57.07;100330.44;104859;1107;78886;-62
2021/04/10 01:34:17;;;;;;;18.90;11.60;;;;;;;3.62;56.71;100332.42;104808;1108;77734;-62
2021/04/10 01:36:31;;;;;;;22.50;10.80;;;;;;;3.57;57.16;100331.02;104877;1108;78745;-64
2021/04/10 01:38:38;;;;;;;18.90;11.30;;;;;;;3.57;57.37;100336.36;104825;1108;78758;-65
2021/04/10 01:40:44;;;;;;;21.30;11.60;;;;;;;3.52;57.53;100332.45;104879;1108;78643;-65
2021/04/10 01:42:51;;;;;;;20.50;10.80;;;;;;;3.44;57.53;100337.67;104835;1108;78334;-65
2021/04/10 01:45:01;;;;;;;20.80;11.80;;;;;;;3.39;57.82;100332.78;104835;1108;77136;-64
2021/04/10 01:47:15;;;;;;;20.20;12.10;;;;;;;3.35;58.09;100336.71;104895;1108;78824;-62
2021/04/10 01:49:21;;;;;;;20.00;11.80;;;;;;;3.35;58.18;100327.89;104856;1108;77236;-62
2021/04/10 01:51:26;;;;;;;21.30;12.90;;;;;;;3.37;58.01;100328.58;104891;1108;78659;-63
2021/04/10 01:53:33;;;;;;;19.50;11.20;;;;;;;3.37;58.10;100329.42;104812;1108;79065;-65
2021/04/10 01:55:42;;;;;;;22.90;13.00;;;;;;;3.32;58.50;100337.03;104819;1108;78122;-65
2021/04/10 01:57:48;;;;;;;22.30;10.90;;;;;;;3.32;58.41;100336.19;104888;1108;77208;-65
2021/04/10 01:59:54;;;;;;;17.50;10.70;;;;;;;3.31;58.45;100332.67;104828;1108;78208;-65
2021/04/10 02:02:01;;;;;;;19.80;11.20;;;;;;;3.28;58.44;100330.28;104876;1108;77218;-65
2021/04/10 02:04:09;;;;;;;19.30;12.30;;;;;;;3.27;58.83;100325.10;104958;1111;78454;-65
2021/04/10 02:06:15;;;;;;;20.20;11.70;;;;;;;3.29;58.52;100329.31;104957;1110;77133;-65
2021/04/10 02:08:24;;;;;;;19.70;12.10;;;;;;;3.33;58.62;100335.17;104928;1108;78253;-62
2021/04/10 02:10:30;;;;;;;22.40;12.30;;;;;;;3.36;58.64;100319.72;104827;1110;79064;-62
2021/04/10 02:12:36;;;;;;;18.70;11.40;;;;;;;3.38;58.68;100323.08;104944;1110;78887;-65
2021/04/10 02:14:42;;;;;;;19.90;11.20;;;;;;;3.39;58.65;100321.25;104867;1108;78469;-65
2021/04/10 02:16:47;;;;;;;19.00;11.40;;;;;;;3.34;58.54;100324.38;104900;1108;78553;-65
2021/04/10 02:18:53;;;;;;;22.20;12.40;;;;;;;3.31;58.72;100331.81;104852;1108;77695;-64
2021/04/10 02:21:04;;;;;;;17.30;10.70;;;;;;;3.26;58.81;100336.75;104821;1108;77943;-64
2021/04/10 02:23:10;;;;;;;19.10;11.00;;;;;;;3.16;59.11;100336.76;104897;1108;78347;-65
2021/04/10 02:25:16;;;;;;;20.60;12.30;;;;;;;3.10;59.33;100332.02;104867;1108;77067;-65
2021/04/10 02:27:21;;;;;;;20.50;11.40;;;;;;;3.15;59.40;100328.91;104838;1108;78399;-65
2021/04/10 02:29:26;;;;;;;23.90;11.80;;;;;;;3.21;59.13;100336.34;104823;1108;78388;-64
2021/04/10 02:31:37;;;;;;;22.60;12.30;;;;;;;3.19;59.20;100323.13;104860;1108;78278;-63
2021/04/10 02:33:44;;;;;;;17.10;10.80;;;;;;;3.17;59.15;100322.44;104837;1110;78267;-63
2021/04/10 02:35:56;;;;;;;19.00;11.10;;;;;;;3.19;59.45;100328.47;104878;1108;77587;-66
2021/04/10 02:38:02;;;;;;;23.60;12.00;;;;;;;3.23;59.35;100331.70;104825;1108;77113;-62
2021/04/10 02:40:11;;;;;;;19.60;11.50;;;;;;;3.19;59.30;100325.80;104815;1108;76956;-62
2021/04/10 02:42:17;;;;;;;17.70;10.80;;;;;;;3.15;59.30;100328.91;104907;1108;77396;-61
2021/04/10 02:44:28;;;;;;;19.10;11.20;;;;;;;3.12;59.66;100323.86;104862;1108;76905;-62
2021/04/10 02:46:43;;;;;;;20.70;10.90;;;;;;;3.06;59.60;100325.27;104888;1108;79051;-61
2021/04/10 02:48:58;;;;;;;18.20;10.70;;;;;;;3.04;59.76;100323.73;104853;1108;77416;-62
2021/04/10 02:51:07;;;;;;;21.60;12.30;;;;;;;2.99;59.67;100324.98;104822;1108;78736;-62
2021/04/10 02:53:13;;;;;;;20.50;11.90;;;;;;;3.02;59.72;100326.56;104882;1109;76829;-62
2021/04/10 02:55:26;;;;;;;23.00;12.90;;;;;;;3.06;59.96;100324.42;104913;1108;78586;-63
2021/04/10 02:57:36;;;;;;;19.20;10.40;;;;;;;3.08;59.89;100322.48;104857;1108;78382;-63
2021/04/10 02:59:45;;;;;;;23.90;12.40;;;;;;;3.10;60.16;100323.17;104852;1108;77705;-62
2021/04/10 03:01:53;;;;;;;22.40;11.20;;;;;;;3.15;60.19;100316.41;104825;1108;77007;-63
2021/04/10 03:04:04;;;;;;;24.40;11.20;;;;;;;3.17;60.15;100310.92;104804;1108;77687;-62
2021/04/10 03:06:12;;;;;;;19.10;10.80;;;;;;;3.20;59.68;100313.30;104835;1108;78861;-62
2021/04/10 03:08:20;;;;;;;21.60;11.00;;;;;;;3.22;60.12;100319.33;104885;1108;77992;-63
2021/04/10 03:10:26;;;;;;;18.70;9.90;;;;;;;3.19;59.69;100315.13;104887;1108;77680;-63
2021/04/10 03:12:31;;;;;;;16.70;10.50;;;;;;;3.19;60.48;100308.94;104838;1108;78305;-62
2021/04/10 03:14:37;;;;;;;17.10;10.50;;;;;;;3.22;60.16;100314.84;104835;1108;77101;-62
2021/04/10 03:16:45;;;;;;;17.90;10.50;;;;;;;3.22;59.85;100313.98;104862;1108;78171;-62
2021/04/10 03:18:52;;;;;;;21.80;11.30;;;;;;;3.24;59.63;100306.70;104823;1108;77354;-62
2021/04/10 03:20:58;;;;;;;18.40;10.20;;;;;;;3.24;59.79;100317.38;104835;1108;78058;-62
2021/04/10 03:23:03;;;;;;;18.60;10.10;;;;;;;3.18;59.73;100318.80;104847;1108;78779;-62
2021/04/10 03:25:12;;;;;;;18.60;9.80;;;;;;;3.18;60.05;100318.80;104804;1108;78113;-62
2021/04/10 03:27:17;;;;;;;19.50;11.30;;;;;;;3.20;60.10;100316.81;104962;1110;78914;-62
2021/04/10 03:29:22;;;;;;;18.80;11.10;;;;;;;3.19;59.83;100325.80;104918;1108;77656;-63
2021/04/10 03:31:28;;;;;;;18.30;10.10;;;;;;;3.19;60.05;100324.95;104855;1108;78935;-63
2021/04/10 03:33:35;;;;;;;18.50;10.70;;;;;;;3.17;60.02;100318.92;104877;1108;78306;-64
2021/04/10 03:35:41;;;;;;;20.00;10.70;;;;;;;3.11;60.05;100316.83;104995;1110;78256;-63
2021/04/10 03:37:46;;;;;;;18.90;11.00;;;;;;;3.10;60.25;100320.50;104906;1108;78677;-62
2021/04/10 03:39:51;;;;;;;20.50;10.70;;;;;;;3.09;60.22;100316.98;105002;1110;77203;-63
2021/04/10 03:41:56;;;;;;;18.20;11.40;;;;;;;3.07;60.08;100310.11;104801;1109;78779;-62
2021/04/10 03:44:01;;;;;;;20.70;10.70;;;;;;;2.99;60.09;100308.16;104991;1110;78136;-62
2021/04/10 03:46:06;;;;;;;16.70;10.50;;;;;;;2.96;60.16;100309.30;104812;1108;76937;-62
2021/04/10 03:48:12;;;;;;;19.10;10.70;;;;;;;2.93;60.28;100312.25;104955;1110;78846;-62
2021/04/10 03:50:17;;;;;;;17.30;10.80;;;;;;;2.90;60.21;100319.68;104860;1108;78091;-62
2021/04/10 03:52:22;;;;;;;18.10;10.60;;;;;;;2.90;60.51;100323.20;104867;1108;78762;-62
2021/04/10 03:54:27;;;;;;;17.70;10.50;;;;;;;2.93;60.54;100322.92;104876;1108;78660;-63
2021/04/10 03:56:32;;;;;;;17.40;11.00;;;;;;;2.91;60.52;100327.53;104876;1108;78462;-62
2021/04/10 03:58:41;;;;;;;20.30;10.80;;;;;;;2.88;60.67;100322.47;104815;1108;79548;-63
2021/04/10 04:00:46;;;;;;;22.00;11.00;;;;;;;2.90;60.71;100331.20;104797;1108;79477;-62
2021/04/10 04:02:51;;;;;;;19.70;10.30;;;;;;;2.94;60.33;100331.73;104849;1108;77043;-62
2021/04/10 04:04:56;;;;;;;18.30;10.30;;;;;;;2.96;60.46;100324.45;104818;1108;78147;-63
2021/04/10 04:07:01;;;;;;;17.10;11.10;;;;;;;2.98;60.66;100327.81;104887;1108;78750;-63
2021/04/10 04:09:09;;;;;;;19.50;10.60;;;;;;;3.06;60.63;100329.76;104979;1110;78693;-63
2021/04/10 04:11:14;;;;;;;19.50;10.60;;;;;;;3.04;60.77;100337.92;104852;1108;77611;-62
2021/04/10 04:13:23;;;;;;;17.40;10.30;;;;;;;3.04;60.63;100337.08;104960;1110;78382;-63
2021/04/10 04:15:28;;;;;;;18.00;10.90;;;;;;;2.99;60.63;100343.66;104864;1108;78604;-63
2021/04/10 04:17:33;;;;;;;18.90;10.20;;;;;;;2.97;60.84;100345.64;104810;1108;79724;-63
2021/04/10 04:19:38;;;;;;;19.20;11.10;;;;;;;3.01;60.90;100343.55;104962;1110;78363;-63
2021/04/10 04:21:43;;;;;;;20.80;10.40;;;;;;;2.98;60.74;100343.82;104892;1108;77064;-63
2021/04/10 04:23:48;;;;;;;18.60;10.50;;;;;;;2.96;61.19;100343.98;104995;1109;78002;-63
2021/04/10 04:25:53;;;;;;;21.80;10.50;;;;;;;2.97;60.85;100350.98;104990;1110;77519;-64
2021/04/10 04:28:01;;;;;;;17.90;11.20;;;;;;;3.00;61.12;100347.19;104961;1110;79813;-64
2021/04/10 04:30:09;;;;;;;18.20;10.70;;;;;;;3.01;61.15;100342.69;104973;1110;77727;-63
2021/04/10 04:32:14;;;;;;;18.60;10.60;;;;;;;3.08;60.92;100343.83;104846;1108;77932;-63
2021/04/10 04:34:19;;;;;;;20.20;10.80;;;;;;;3.13;61.16;100354.91;104856;1108;78322;-63
2021/04/10 04:36:24;;;;;;;19.20;11.50;;;;;;;3.26;61.08;100342.94;104976;1109;77717;-65
2021/04/10 04:38:29;;;;;;;16.00;9.90;;;;;;;3.64;61.15;100338.45;104954;1110;78014;-63
2021/04/10 04:40:34;;;;;;;20.20;11.20;;;;;;;4.24;61.32;100345.04;104984;1110;77057;-63
2021/04/10 04:42:42;;;;;;;19.00;10.10;;;;;;;4.97;61.08;100350.10;104977;1110;78193;-64
2021/04/10 04:44:47;;;;;;;16.80;10.30;;;;;;;5.60;60.38;100334.67;104993;1110;76869;-63
2021/04/10 04:46:54;;;;;;;16.30;10.50;;;;;;;6.36;60.18;100340.88;104861;1108;77238;-64
2021/04/10 04:48:59;;;;;;;22.90;11.60;;;;;;;7.25;59.33;100342.80;104870;1108;77757;-64
2021/04/10 04:51:07;;;;;;;14.70;9.60;;;;;;;8.18;58.37;100328.58;104974;1110;78438;-64
2021/04/10 04:53:12;;;;;;;16.80;10.30;;;;;;;9.01;56.70;100343.03;104807;1108;77387;-64
2021/04/10 04:55:17;;;;;;;15.70;9.50;;;;;;;9.73;56.06;100336.13;104855;1108;77849;-64
2021/04/10 04:57:22;;;;;;;15.60;9.30;;;;;;;10.47;54.55;100347.71;104977;1110;77488;-64
2021/04/10 04:59:27;;;;;;;15.90;10.60;;;;;;;10.94;52.94;100348.03;104842;1108;77196;-64
2021/04/10 05:01:32;;;;;;;14.40;9.50;;;;;;;11.02;52.08;100349.77;104957;1110;77479;-64
2021/04/10 05:03:37;;;;;;;14.50;9.40;;;;;;;11.11;51.52;100338.64;104979;1110;78415;-64
2021/04/10 05:05:43;;;;;;;17.40;11.10;;;;;;;11.40;50.36;100345.73;104849;1108;77312;-63
2021/04/10 05:07:48;;;;;;;16.90;10.50;;;;;;;11.75;49.60;100346.67;104881;1108;77715;-63
2021/04/10 05:09:53;;;;;;;16.30;10.20;;;;;;;12.01;49.42;100341.41;104805;1108;80437;-63
2021/04/10 05:11:58;;;;;;;14.90;10.10;;;;;;;11.94;47.15;100336.99;104841;1108;79023;-64
2021/04/10 05:14:03;;;;;;;14.60;10.60;;;;;;;12.17;47.83;100340.22;104940;1111;78981;-64
2021/04/10 05:16:09;;;;;;;16.40;10.70;;;;;;;12.29;47.05;100341.34;104966;1110;79293;-64
2021/04/10 05:18:16;;;;;;;17.30;10.70;;;;;;;12.42;46.57;100338.67;104955;1110;77272;-63
2021/04/10 05:20:22;;;;;;;17.00;11.40;;;;;;;11.83;46.33;100341.09;104823;1108;78633;-63
2021/04/10 05:22:27;;;;;;;19.30;11.80;;;;;;;11.49;46.18;100344.56;104856;1108;78976;-62
2021/04/10 05:24:32;;;;;;;18.40;11.80;;;;;;;11.09;46.47;100347.98;104989;1110;77641;-63
2021/04/10 05:26:37;;;;;;;19.20;11.40;;;;;;;11.03;46.39;100344.18;104976;1109;78718;-63
2021/04/10 05:28:42;;;;;;;17.60;10.80;;;;;;;11.37;46.47;100353.42;104861;1108;77559;-63
2021/04/10 05:30:47;;;;;;;18.70;10.70;;;;;;;12.02;46.53;100340.38;104849;1108;76976;-63
2021/04/10 05:32:55;;;;;;;16.20;10.90;;;;;;;12.61;45.61;100356.88;104977;1108;78781;-63
2021/04/10 05:35:01;;;;;;;16.30;11.40;;;;;;;12.53;45.15;100356.22;104851;1108;78666;-63
2021/04/10 05:37:06;;;;;;;17.90;12.00;;;;;;;12.31;45.07;100360.92;104954;1110;77097;-63
2021/04/10 05:39:11;;;;;;;19.40;12.50;;;;;;;11.96;45.00;100360.13;104870;1108;78441;-63
2021/04/10 05:41:17;;;;;;;17.90;11.60;;;;;;;11.63;44.86;100367.14;104820;1108;79138;-63
2021/04/10 05:43:22;;;;;;;17.50;11.10;;;;;;;11.45;45.61;100362.23;104860;1108;79763;-63
2021/04/10 05:45:27;;;;;;;20.00;12.10;;;;;;;11.60;45.13;100364.83;104940;1110;77859;-63
2021/04/10 05:47:35;;;;;;;17.90;11.80;;;;;;;11.79;45.07;100372.28;104863;1108;78848;-63
2021/04/10 05:49:40;;;;;;;17.60;12.20;;;;;;;12.09;45.10;100371.02;104996;1110;77179;-64
2021/04/10 05:51:46;;;;;;;19.00;13.20;;;;;;;12.21;44.93;100364.02;104876;1108;77575;-63
2021/04/10 05:53:51;;;;;;;19.10;12.80;;;;;;;12.25;44.40;100369.88;104823;1108;77851;-63
2021/04/10 05:55:56;;;;;;;20.40;12.60;;;;;;;12.41;43.72;100383.89;104897;1108;79037;-64
2021/04/10 05:58:01;;;;;;;19.30;12.90;;;;;;;12.50;44.06;100392.69;104968;1110;77260;-64
2021/04/10 06:00:09;;;;;;;18.80;12.30;;;;;;;12.28;43.74;100391.12;104967;1110;78331;-64
2021/04/10 06:02:17;;;;;;;20.90;14.20;;;;;;;12.89;43.78;100397.42;104852;1110;78561;-63
2021/04/10 06:04:22;;;;;;;22.50;13.00;;;;;;;13.27;42.98;100398.57;104799;1108;78583;-63
2021/04/10 06:06:27;;;;;;;18.90;12.40;;;;;;;13.40;43.16;100398.61;104977;1109;78650;-63
2021/04/10 06:08:35;;;;;;;21.30;13.10;;;;;;;13.83;43.00;100401.73;104834;1108;78304;-63
2021/04/10 06:10:40;;;;;;;21.10;12.50;;;;;;;14.22;41.28;100398.11;104966;1110;79589;-69
2021/04/10 06:12:45;;;;;;;23.20;12.90;;;;;;;14.63;41.94;100400.52;104868;1108;78556;-69
2021/04/10 06:14:51;;;;;;;20.90;13.10;;;;;;;15.03;41.24;100398.42;104986;1110;78579;-70
2021/04/10 06:16:56;;;;;;;16.40;12.40;;;;;;;15.70;40.34;100405.94;104886;1108;77375;-64
2021/04/10 06:19:01;;;;;;;20.30;12.90;;;;;;;16.61;40.02;100396.02;104887;1109;78485;-66
2021/04/10 06:21:07;;;;;;;17.40;12.00;;;;;;;17.77;38.55;100409.27;104839;1108;77077;-63
2021/04/10 06:23:15;;;;;;;21.10;12.50;;;;;;;18.07;38.33;100410.84;104852;1109;77712;-77
2021/04/10 06:25:21;;;;;;;16.60;12.20;;;;;;;18.32;36.81;100401.55;104862;1108;78672;-77
2021/04/10 06:27:26;;;;;;;15.70;12.10;;;;;;;18.99;36.79;100403.53;104896;1108;79081;-78
2021/04/10 06:29:34;;;;;;;19.20;12.10;;;;;;;19.53;35.30;100409.51;104976;1110;78206;-79
2021/04/10 06:31:39;;;;;;;16.80;12.30;;;;;;;19.96;35.24;100390.48;104908;1103;77288;-80
2021/04/10 06:33:44;;;;;;;20.30;12.50;;;;;;;20.11;34.56;100393.44;104966;1108;78170;-76
2021/04/10 06:35:49;;;;;;;16.60;12.30;;;;;;;20.05;34.05;100397.21;104945;1108;77437;-77
2021/04/10 06:37:54;;;;;;;83.60;62.00;;;;;;;20.00;33.26;100397.95;104946;1108;78250;-79
2021/04/10 06:39:59;;;;;;;25.60;18.90;;;;;;;19.32;33.00;100400.05;104962;1108;78866;-78
2021/04/10 06:42:07;;;;;;;19.50;12.90;;;;;;;19.56;33.18;100398.05;104966;1106;77587;-79
2021/04/10 06:44:12;;;;;;;19.60;12.30;;;;;;;19.18;33.05;100390.47;105000;1108;78021;-71
2021/04/10 06:46:23;;;;;;;18.10;12.70;;;;;;;19.34;33.00;100386.92;104930;1108;76939;-77
2021/04/10 06:48:30;;;;;;;19.30;11.90;;;;;;;19.26;32.63;100390.91;104950;1107;78041;-76
2021/04/10 06:50:35;;;;;;;16.60;13.00;;;;;;;18.83;32.67;100401.57;104940;1106;79132;-74
2021/04/10 06:52:43;;;;;;;19.70;13.30;;;;;;;18.78;32.55;100393.27;104971;1107;78345;-74
2021/04/10 06:54:56;;;;;;;18.00;12.40;;;;;;;19.05;32.22;100394.34;104980;1108;77062;-74
2021/04/10 06:57:14;;;;;;;17.00;12.60;;;;;;;19.12;32.54;100400.49;104929;1107;78962;-62
2021/04/10 06:59:28;;;;;;;18.70;13.50;;;;;;;19.44;32.21;100387.16;104949;1108;77972;-63
2021/04/10 07:01:35;;;;;;;17.50;12.20;;;;;;;19.62;31.84;100391.55;104962;1108;78449;-63
2021/04/10 07:03:42;;;;;;;14.50;11.40;;;;;;;19.93;31.18;100385.50;104972;1108;78819;-63
2021/04/10 07:05:47;;;;;;;16.90;13.50;;;;;;;20.18;31.92;100383.14;104945;1108;77078;-74
2021/04/10 07:07:55;;;;;;;18.70;12.30;;;;;;;20.64;28.87;100378.28;104938;1108;77033;-73
2021/04/10 07:10:01;;;;;;;19.20;14.40;;;;;;;21.21;30.87;100389.67;104964;1108;77644;-67
2021/04/10 07:12:09;;;;;;;21.80;13.00;;;;;;;20.97;30.36;100387.20;104972;1108;78882;-66
2021/04/10 07:14:14;;;;;;;17.80;13.00;;;;;;;20.38;30.03;100388.12;104986;1108;78261;-65
2021/04/10 07:16:19;;;;;;;18.00;12.80;;;;;;;19.77;30.18;100394.56;104951;1108;78361;-65
2021/04/10 07:18:30;;;;;;;21.50;13.40;;;;;;;19.46;31.32;100389.64;104933;1108;78732;-66
2021/04/10 07:20:39;;;;;;;19.10;12.30;;;;;;;19.47;31.38;100391.31;104963;1108;78081;-66
2021/04/10 07:23:01;;;;;;;19.10;13.20;;;;;;;19.16;31.60;100395.37;104930;1108;78440;-66
2021/04/10 07:25:24;;;;;;;19.20;13.40;;;;;;;18.83;31.58;100402.41;104941;1108;76989;-66
2021/04/10 07:27:29;;;;;;;16.60;13.60;;;;;;;18.49;32.09;100397.00;104950;1108;78540;-66
2021/04/10 07:29:36;;;;;;;19.40;13.10;;;;;;;18.08;32.02;100403.44;104946;1107;77495;-65
2021/04/10 07:31:41;;;;;;;20.70;13.60;;;;;;;17.85;32.52;100407.02;104972;1108;77546;-66
2021/04/10 07:34:01;;;;;;;20.10;13.30;;;;;;;17.87;32.88;100404.04;104982;1106;77711;-65
2021/04/10 07:36:12;;;;;;;14.70;11.70;;;;;;;17.69;32.62;100410.42;105007;1108;77475;-67
2021/04/10 07:38:29;;;;;;;21.30;13.20;;;;;;;18.23;33.12;100407.38;104881;1108;78216;-66
2021/04/10 07:40:37;;;;;;;17.60;11.60;;;;;;;18.61;32.94;100406.88;104830;1108;78682;-65
2021/04/10 07:42:46;;;;;;;17.40;11.80;;;;;;;19.17;32.93;100402.52;104893;1108;79117;-65
2021/04/10 07:44:58;;;;;;;16.50;12.30;;;;;;;20.12;31.77;100399.76;104865;1108;78677;-66
2021/04/10 07:47:08;;;;;;;14.30;11.50;;;;;;;20.39;31.35;100396.08;104892;1109;79415;-67
2021/04/10 07:49:14;;;;;;;15.10;12.10;;;;;;;20.78;31.31;100393.28;104962;1110;78578;-65
2021/04/10 07:53:32;;;;;;;16.70;11.80;;;;;;;20.96;30.55;100392.94;104938;1104;77312;-66
2021/04/10 07:55:42;;;;;;;15.80;12.30;;;;;;;20.63;30.77;100390.37;104817;1108;77697;-67
2021/04/10 07:57:50;;;;;;;16.50;12.30;;;;;;;20.44;30.52;100393.41;104855;1108;78889;-66
2021/04/10 07:59:56;;;;;;;18.00;13.00;;;;;;;20.21;30.10;100404.58;104981;1110;78080;-66
2021/04/10 08:02:13;;;;;;;17.70;12.10;;;;;;;19.95;29.75;100399.78;104876;1108;78560;-66
2021/04/10 08:04:20;;;;;;;18.50;14.00;;;;;;;19.87;30.24;100401.04;104883;1108;78530;-66
2021/04/10 08:06:28;;;;;;;18.00;13.10;;;;;;;19.81;30.09;100403.94;104889;1108;78568;-66
2021/04/10 08:08:47;;;;;;;17.10;12.90;;;;;;;19.73;30.57;100407.09;104851;1108;77612;-65
2021/04/10 08:11:01;;;;;;;17.30;12.20;;;;;;;20.84;30.42;100403.25;104873;1108;77223;-65
2021/04/10 08:13:12;;;;;;;15.70;12.80;;;;;;;21.85;29.48;100413.38;104891;1109;78389;-65
2021/04/10 08:15:26;;;;;;;16.20;13.30;;;;;;;22.39;28.62;100413.25;104848;1108;78747;-66
2021/04/10 08:17:38;;;;;;;17.50;12.30;;;;;;;23.57;28.24;100404.05;104826;1108;77693;-65
2021/04/10 08:19:44;;;;;;;15.80;12.30;;;;;;;24.51;27.58;100408.95;104841;1108;78950;-65
2021/04/10 08:21:50;;;;;;;16.80;12.60;;;;;;;24.71;26.83;100411.66;104883;1108;76942;-65
2021/04/10 08:23:59;;;;;;;16.90;13.70;;;;;;;25.12;26.44;100406.80;104840;1108;78360;-65
2021/04/10 08:26:07;;;;;;;15.60;12.50;;;;;;;25.17;26.66;100407.59;104855;1108;79080;-65
2021/04/10 08:28:13;;;;;;;16.80;11.50;;;;;;;26.09;26.13;100408.61;104903;1108;79087;-66
2021/04/10 08:30:23;;;;;;;16.10;11.80;;;;;;;26.73;24.97;100410.13;104844;1108;78469;-67
2021/04/10 08:32:28;;;;;;;16.30;12.70;;;;;;;26.80;24.26;100410.66;104891;1108;78944;-66
2021/04/10 08:34:33;;;;;;;17.50;13.60;;;;;;;26.44;23.79;100417.69;104927;1108;77270;-66
2021/04/10 08:36:42;;;;;;;15.30;13.30;;;;;;;26.58;23.74;100410.33;104865;1108;77302;-66
2021/04/10 08:38:47;;;;;;;13.30;11.90;;;;;;;26.98;24.13;100401.53;104860;1108;78824;-66
2021/04/10 08:40:56;;;;;;;16.60;13.30;;;;;;;27.13;23.59;100394.97;104890;1108;79238;-66
2021/04/10 08:43:05;;;;;;;13.80;12.20;;;;;;;27.15;22.69;100390.77;104843;1108;77185;-66
2021/04/10 08:45:13;;;;;;;14.40;12.30;;;;;;;27.18;23.15;100400.44;104901;1108;78138;-67
2021/04/10 08:47:20;;;;;;;14.10;11.20;;;;;;;26.58;22.17;100396.47;104842;1108;78702;-66
2021/04/10 08:49:26;;;;;;;12.80;10.90;;;;;;;26.22;22.24;100399.64;104837;1108;78782;-65
2021/04/10 08:51:38;;;;;;;16.60;13.00;;;;;;;25.87;22.66;100399.95;104980;1110;78874;-66
2021/04/10 08:53:50;;;;;;;14.00;12.10;;;;;;;25.14;23.08;100404.56;104935;1109;78469;-66
2021/04/10 08:55:57;;;;;;;14.30;12.80;;;;;;;24.58;24.08;100396.48;104852;1107;77336;-66
2021/04/10 08:58:20;;;;;;;14.40;12.70;;;;;;;23.67;23.44;100404.08;104862;1108;78818;-65
2021/04/10 09:00:30;;;;;;;15.00;11.40;;;;;;;23.08;23.94;100408.33;104844;1108;77149;-66
2021/04/10 09:02:52;;;;;;;15.00;11.70;;;;;;;22.58;25.48;100414.45;104862;1108;77566;-65
2021/04/10 09:05:09;;;;;;;16.60;12.70;;;;;;;22.96;24.97;100399.48;104840;1108;78756;-65
2021/04/10 09:07:14;;;;;;;14.00;12.10;;;;;;;22.69;24.61;100411.48;104891;1107;77069;-66
2021/04/10 09:09:32;;;;;;;16.90;12.20;;;;;;;22.39;25.62;100416.00;104860;1108;78568;-65
2021/04/10 09:11:38;;;;;;;15.50;12.20;;;;;;;22.45;25.45;100421.25;105004;1110;77472;-66
2021/04/10 09:13:47;;;;;;;15.30;12.90;;;;;;;22.19;25.46;100413.94;104865;1108;78915;-67
2021/04/10 09:16:38;;;;;;;16.40;12.00;;;;;;;22.04;25.24;100420.16;104854;1108;78691;-66
2021/04/10 09:18:53;;;;;;;15.60;12.50;;;;;;;21.84;25.90;100413.66;104849;1108;78715;-69
2021/04/10 09:21:13;;;;;;;17.20;11.80;;;;;;;21.75;26.57;100418.80;104815;1108;79037;-69
2021/04/10 09:23:33;;;;;;;16.50;12.40;;;;;;;22.09;25.73;100424.86;104849;1108;78337;-70
2021/04/10 09:25:39;;;;;;;16.30;12.10;;;;;;;21.89;26.03;100422.81;104842;1108;77123;-64
2021/04/10 09:28:08;;;;;;;15.20;11.90;;;;;;;21.78;25.82;100421.84;104803;1107;78030;-61
2021/04/10 09:30:35;;;;;;;15.70;11.80;;;;;;;21.39;25.72;100412.14;104848;1108;77910;-61
2021/04/10 09:32:45;;;;;;;15.50;11.20;;;;;;;20.92;25.56;100431.09;104856;1109;77565;-63
2021/04/10 09:34:56;;;;;;;14.70;11.30;;;;;;;20.74;26.39;100416.86;104886;1108;77723;-62
2021/04/10 09:37:01;;;;;;;15.00;10.90;;;;;;;20.29;26.54;100417.90;104930;1108;78377;-64
2021/04/10 09:39:07;;;;;;;14.30;11.10;;;;;;;20.38;27.21;100419.11;104849;1108;76867;-63
2021/04/10 09:41:12;;;;;;;15.30;10.70;;;;;;;20.18;26.33;100412.48;104844;1109;78628;-64
2021/04/10 09:43:20;;;;;;;16.50;11.60;;;;;;;20.07;27.48;100418.89;104948;1108;78725;-64
2021/04/10 09:45:34;;;;;;;14.40;10.90;;;;;;;20.16;27.82;100412.70;104899;1108;78583;-64